createdAt,value
2022-11-27T00:01:21.300Z,94942.88
2022-11-27T00:03:48.297Z,94963.53
2022-11-27T00:06:17.825Z,94929.66
2022-11-27T00:08:45.561Z,94935.16
2022-11-27T00:11:15.812Z,94926.28
2022-11-27T00:13:42.664Z,94932.69
2022-11-27T00:16:09.693Z,94949.13
2022-11-27T00:18:36.687Z,94941.91
2022-11-27T00:21:13.390Z,94924.66
2022-11-27T00:23:40.768Z,94949.16
2022-11-27T00:26:08.058Z,94870.78
2022-11-27T00:28:41.723Z,94916.81
2022-11-27T00:31:21.201Z,94936.72
2022-11-27T00:33:48.132Z,94923.75
2022-11-27T00:36:15.931Z,94926.28
2022-11-27T00:38:42.735Z,94937.34
2022-11-27T00:41:12.318Z,94892.41
2022-11-27T00:43:44.547Z,94924.66
2022-11-27T00:46:13.729Z,94895.69
2022-11-27T00:48:40.388Z,94888.50
2022-11-27T00:51:10.481Z,94914.97
2022-11-27T00:53:51.482Z,94920.63
2022-11-27T00:56:22.107Z,94851.06
2022-11-27T00:58:48.611Z,94909.88
2022-11-27T01:01:25.089Z,94904.56
2022-11-27T01:03:51.740Z,94894.88
2022-11-27T01:06:19.727Z,94907.59
2022-11-27T01:08:46.511Z,94878.81
2022-11-27T01:11:25.747Z,94907.94
2022-11-27T01:13:53.457Z,94907.75
2022-11-27T01:16:22.378Z,94906.41
2022-11-27T01:18:51.587Z,94897.81
2022-11-27T01:21:21.039Z,94903.38
2022-11-27T01:23:49.022Z,94869.88
2022-11-27T01:26:32.883Z,94897.25
2022-11-27T01:28:59.709Z,94880.47
2022-11-27T01:31:29.680Z,94882.09
2022-11-27T01:33:58.487Z,94860.91
2022-11-27T01:36:27.370Z,94882.09
2022-11-27T01:38:54.637Z,94877.91
2022-11-27T01:41:29.975Z,94836.34
2022-11-27T01:44:24.028Z,94869.66
2022-11-27T01:46:56.780Z,94827.84
2022-11-27T01:49:36.999Z,94847.16
2022-11-27T01:52:12.030Z,94846.81
2022-11-27T01:54:46.037Z,94825.34
2022-11-27T01:57:20.909Z,94846.06
2022-11-27T01:59:52.536Z,94834.09
2022-11-27T02:02:19.030Z,94811.75
2022-11-27T02:04:45.737Z,94814.47
2022-11-27T02:07:12.369Z,94807.88
2022-11-27T02:09:47.169Z,94822.84
2022-11-27T02:12:24.977Z,94806.19
2022-11-27T02:15:11.331Z,94816.19
2022-11-27T02:17:46.892Z,94801.03
2022-11-27T02:20:33.572Z,94808.22
2022-11-27T02:23:18.828Z,94807.44
2022-11-27T02:26:03.423Z,94798.22
2022-11-27T02:29:00.885Z,94796.38
2022-11-27T02:32:24.012Z,94789.41
2022-11-27T02:35:07.287Z,94766.03
2022-11-27T02:37:39.544Z,94755.56
2022-11-27T02:40:26.111Z,94782.47
2022-11-27T02:42:55.547Z,94779.16
2022-11-27T02:45:27.350Z,94751.50
2022-11-27T02:47:57.068Z,94752.25
2022-11-27T02:50:25.893Z,94743.88
2022-11-27T02:53:10.499Z,94767.03
2022-11-27T02:55:39.566Z,94744.81
2022-11-27T02:58:12.751Z,94770.03
2022-11-27T03:00:42.057Z,94732.69
2022-11-27T03:03:19.926Z,94739.03
2022-11-27T03:05:49.535Z,94769.34
2022-11-27T03:08:29.789Z,94753.94
2022-11-27T03:11:16.037Z,94769.91
2022-11-27T03:13:45.596Z,94736.59
2022-11-27T03:16:27.383Z,94773.09
2022-11-27T03:19:03.209Z,94764.28
2022-11-27T03:21:43.636Z,94705.75
2022-11-27T03:24:11.399Z,94738.22
2022-11-27T03:26:39.325Z,94744.63
2022-11-27T03:29:12.461Z,94753.00
2022-11-27T03:31:39.153Z,94721.81
2022-11-27T03:34:05.743Z,94767.03
2022-11-27T03:36:32.252Z,94731.66
2022-11-27T03:38:58.730Z,94724.00
2022-11-27T03:41:44.284Z,94742.06
2022-11-27T03:44:29.396Z,94742.06
2022-11-27T03:47:11.329Z,94717.91
2022-11-27T03:49:40.709Z,94753.56
2022-11-27T03:52:29.224Z,94741.53
2022-11-27T03:55:15.928Z,94736.59
2022-11-27T03:57:54.620Z,94732.84
2022-11-27T04:00:31.636Z,94709.97
2022-11-27T04:02:58.071Z,94718.28
2022-11-27T04:05:24.523Z,94726.03
2022-11-27T04:07:52.112Z,94739.88
2022-11-27T04:10:18.686Z,94731.88
2022-11-27T04:12:45.139Z,94735.13
2022-11-27T04:15:15.842Z,94734.06
2022-11-27T04:17:42.278Z,94724.56
2022-11-27T04:20:10.814Z,94730.41
2022-11-27T04:22:37.274Z,94747.56
2022-11-27T04:25:04.091Z,94720.28
2022-11-27T04:27:30.616Z,94738.44
2022-11-27T04:29:57.116Z,94714.16
2022-11-27T04:32:23.581Z,94708.31
2022-11-27T04:34:50.014Z,94720.91
2022-11-27T04:37:16.519Z,94736.44
2022-11-27T04:39:42.934Z,94734.88
2022-11-27T04:42:09.421Z,94712.34
2022-11-27T04:44:36.197Z,94706.88
2022-11-27T04:47:02.934Z,94728.03
2022-11-27T04:49:36.501Z,94715.53
2022-11-27T04:52:03.671Z,94707.22
2022-11-27T04:54:30.108Z,94746.81
2022-11-27T04:56:56.657Z,94747.66
2022-11-27T04:59:23.547Z,94720.88
2022-11-27T05:01:50.380Z,94738.59
2022-11-27T05:04:32.363Z,94743.88
2022-11-27T05:06:58.798Z,94719.69
2022-11-27T05:09:41.492Z,94745.72
2022-11-27T05:12:07.980Z,94727.66
2022-11-27T05:14:34.442Z,94731.28
2022-11-27T05:17:01.101Z,94728.00
2022-11-27T05:19:30.112Z,94752.47
2022-11-27T05:21:56.736Z,94750.81
2022-11-27T05:24:25.719Z,94767.41
2022-11-27T05:26:52.339Z,94767.97
2022-11-27T05:29:20.390Z,94768.50
2022-11-27T05:31:46.922Z,94740.22
2022-11-27T05:34:14.195Z,94759.72
2022-11-27T05:36:41.241Z,94757.75
2022-11-27T05:39:08.938Z,94749.34
2022-11-27T05:41:37.055Z,94731.47
2022-11-27T05:44:03.973Z,94749.25
2022-11-27T05:46:30.475Z,94744.03
2022-11-27T05:48:58.040Z,94735.09
2022-11-27T05:51:25.091Z,94757.00
2022-11-27T05:53:51.621Z,94721.63
2022-11-27T05:56:18.979Z,94742.03
2022-11-27T05:58:48.050Z,94742.66
2022-11-27T06:01:16.539Z,94734.94
2022-11-27T06:03:43.078Z,94706.72
2022-11-27T06:06:12.433Z,94724.50
2022-11-27T06:08:40.359Z,94727.72
2022-11-27T06:11:08.884Z,94698.97
2022-11-27T06:13:35.796Z,94725.06
2022-11-27T06:16:12.360Z,94698.28
2022-11-27T06:18:38.911Z,94714.50
2022-11-27T06:21:10.897Z,94721.44
2022-11-27T06:23:46.485Z,94718.31
2022-11-27T06:26:33.950Z,94719.97
2022-11-27T06:29:06.540Z,94692.03
2022-11-27T06:31:33.754Z,94712.09
2022-11-27T06:34:00.932Z,94694.03
2022-11-27T06:36:44.386Z,94672.53
2022-11-27T06:39:11.883Z,94703.38
2022-11-27T06:41:38.353Z,94685.81
2022-11-27T06:44:05.057Z,94692.03
2022-11-27T06:46:31.622Z,94678.72
2022-11-27T06:48:59.384Z,94696.78
2022-11-27T06:51:29.148Z,94692.03
2022-11-27T06:53:56.428Z,94653.75
2022-11-27T06:56:25.401Z,94672.00
2022-11-27T06:58:57.162Z,94656.88
2022-11-27T07:01:25.223Z,94681.13
2022-11-27T07:03:52.183Z,94675.69
2022-11-27T07:06:21.206Z,94660.72
2022-11-27T07:08:47.973Z,94652.16
2022-11-27T07:11:20.736Z,94662.81
2022-11-27T07:13:49.893Z,94668.22
2022-11-27T07:16:36.242Z,94667.81
2022-11-27T07:19:07.481Z,94667.47
2022-11-27T07:21:37.554Z,94632.47
2022-11-27T07:24:04.221Z,94673.28
2022-11-27T07:26:31.062Z,94660.53
2022-11-27T07:28:57.563Z,94649.41
2022-11-27T07:31:28.056Z,94671.84
2022-11-27T07:33:55.188Z,94663.81
2022-11-27T07:36:24.068Z,94684.19
2022-11-27T07:38:51.098Z,94663.66
2022-11-27T07:41:18.174Z,94673.41
2022-11-27T07:43:51.523Z,94653.88
2022-11-27T07:46:23.409Z,94679.81
2022-11-27T07:48:50.010Z,94682.09
2022-11-27T07:51:19.830Z,94667.13
2022-11-27T07:53:51.912Z,94654.44
2022-11-27T07:56:19.351Z,94703.38
2022-11-27T07:58:46.152Z,94668.69
2022-11-27T08:01:15.118Z,94675.50
2022-11-27T08:03:45.821Z,94680.41
2022-11-27T08:06:31.650Z,94701.31
2022-11-27T08:08:58.080Z,94672.66
2022-11-27T08:11:27.580Z,94693.75
2022-11-27T08:14:02.168Z,94693.16
2022-11-27T08:16:36.775Z,94652.50
2022-11-27T08:19:04.317Z,94673.09
2022-11-27T08:21:30.795Z,94648.91
2022-11-27T08:23:59.281Z,94655.16
2022-11-27T08:26:27.779Z,94685.16
2022-11-27T08:29:00.658Z,94664.88
2022-11-27T08:31:27.351Z,94651.97
2022-11-27T08:33:53.995Z,94657.50
2022-11-27T08:36:20.484Z,94660.88
2022-11-27T08:38:54.396Z,94654.59
2022-11-27T08:41:21.811Z,94665.00
2022-11-27T08:43:48.237Z,94634.22
2022-11-27T08:46:14.875Z,94619.38
2022-11-27T08:48:42.023Z,94605.31
2022-11-27T08:51:14.387Z,94643.34
2022-11-27T08:53:41.045Z,94640.91
2022-11-27T08:56:26.583Z,94629.91
2022-11-27T08:58:53.197Z,94623.44
2022-11-27T09:01:24.952Z,94626.94
2022-11-27T13:31:47.047Z,94342.47
2022-11-27T13:34:27.998Z,94351.28
2022-11-27T13:37:02.384Z,94338.78
2022-11-27T13:39:42.100Z,94311.22
2022-11-27T13:42:21.194Z,94335.78
2022-11-27T13:44:57.193Z,94314.34
2022-11-27T13:47:26.479Z,94318.75
2022-11-27T13:50:02.912Z,94307.75
2022-11-27T13:52:30.185Z,94321.66
2022-11-27T13:54:58.068Z,94316.81
2022-11-27T13:57:30.495Z,94315.22
2022-11-27T14:00:13.487Z,94311.91
2022-11-27T14:02:41.159Z,94287.63
2022-11-27T14:05:08.141Z,94297.44
2022-11-27T14:07:45.413Z,94281.47
2022-11-27T14:10:19.966Z,94279.22
2022-11-27T14:13:08.053Z,94312.00
2022-11-27T14:16:24.188Z,94289.38
2022-11-27T14:18:52.978Z,94280.06
2022-11-27T14:21:42.507Z,94287.09
2022-11-27T14:24:45.806Z,94293.84
2022-11-27T15:07:45.170Z,94273.16
2022-11-27T15:10:38.235Z,94274.50
2022-11-27T15:13:28.087Z,94273.72
2022-11-27T15:16:13.705Z,94260.94
2022-11-27T15:18:41.745Z,94259.25
2022-11-27T15:21:16.796Z,94257.25
2022-11-27T15:23:49.843Z,94253.22
2022-11-27T15:26:44.274Z,94251.78
2022-11-27T15:29:32.365Z,94250.47
2022-11-27T15:31:58.821Z,94231.88
2022-11-27T15:34:25.386Z,94205.56
2022-11-27T15:36:59.640Z,94219.81
2022-11-27T15:39:57.821Z,94211.63
2022-11-27T15:42:28.748Z,94217.53
2022-11-27T15:44:57.271Z,94194.63
2022-11-27T15:47:33.720Z,94225.06
2022-11-27T15:50:17.030Z,94218.25
2022-11-27T15:52:44.139Z,94216.94
2022-11-27T15:55:17.718Z,94185.59
2022-11-27T15:58:15.608Z,94200.03
2022-11-27T16:00:42.115Z,94181.41
2022-11-27T16:03:08.697Z,94161.91
2022-11-27T16:05:41.895Z,94154.81
2022-11-27T16:08:10.824Z,94140.22
2022-11-27T16:10:42.377Z,94154.53
2022-11-27T16:13:09.006Z,94134.00
2022-11-27T16:15:35.433Z,94159.50
2022-11-27T16:18:01.890Z,94134.19
2022-11-27T16:20:28.354Z,94136.25
2022-11-27T16:22:54.776Z,94152.50
2022-11-27T16:25:22.340Z,94130.56
2022-11-27T16:27:48.767Z,94140.06
2022-11-27T16:30:15.379Z,94146.59
2022-11-27T16:32:42.821Z,94132.25
2022-11-27T16:35:16.651Z,94139.03
2022-11-27T16:37:45.104Z,94128.81
2022-11-27T16:40:12.228Z,94115.41
2022-11-27T16:42:40.755Z,94123.66
2022-11-27T16:45:07.850Z,94090.38
2022-11-27T16:47:37.394Z,94120.19
2022-11-27T16:50:04.192Z,94112.88
2022-11-27T16:52:30.630Z,94129.78
2022-11-27T16:54:58.187Z,94111.75
2022-11-27T16:57:33.733Z,94115.03
2022-11-27T17:00:05.888Z,94101.72
2022-11-27T17:02:39.340Z,94105.56
2022-11-27T17:05:11.902Z,94116.41
2022-11-27T17:07:38.538Z,94083.88
2022-11-27T17:10:14.071Z,94089.84
2022-11-27T17:12:40.609Z,94105.56
2022-11-27T17:15:14.724Z,94102.31
2022-11-27T17:17:44.332Z,94088.38
2022-11-27T17:20:21.956Z,94078.72
2022-11-27T17:22:57.603Z,94066.84
2022-11-27T17:25:25.219Z,94075.63
2022-11-27T17:28:01.025Z,94076.81
2022-11-27T17:30:27.509Z,94070.56
2022-11-27T17:32:56.312Z,94055.41
2022-11-27T17:35:30.946Z,94076.31
2022-11-27T17:38:00.467Z,94062.47
2022-11-27T17:40:26.944Z,94069.25
2022-11-27T17:43:12.733Z,94071.69
2022-11-27T17:45:43.105Z,94071.91
2022-11-27T17:48:12.830Z,94072.47
2022-11-27T17:50:39.306Z,94050.75
2022-11-27T17:53:05.730Z,94047.78
2022-11-27T17:55:33.139Z,94060.25
2022-11-27T17:57:59.621Z,94044.00
2022-11-27T18:00:40.282Z,94040.09
2022-11-27T18:03:07.872Z,94039.81
2022-11-27T18:05:46.721Z,94037.06
2022-11-27T18:08:13.153Z,94047.47
2022-11-27T18:10:44.803Z,94030.41
2022-11-27T18:13:26.404Z,94046.38
2022-11-27T18:15:52.905Z,94020.66
2022-11-27T18:18:34.051Z,94018.25
2022-11-27T18:21:18.476Z,94026.38
2022-11-27T18:29:50.169Z,94027.88
2022-11-27T18:32:18.592Z,94033.31
2022-11-27T18:34:45.982Z,94033.56
2022-11-27T18:37:15.583Z,94012.41
2022-11-27T18:39:44.447Z,94022.53
2022-11-27T18:42:11.943Z,94026.75
2022-11-27T18:45:00.039Z,94013.50
2022-11-27T18:47:33.500Z,94005.34
2022-11-27T18:50:19.104Z,94003.06
2022-11-27T18:52:47.804Z,93997.47
2022-11-27T18:55:23.405Z,93975.00
2022-11-27T18:58:01.168Z,93972.03
2022-11-27T19:00:28.086Z,93973.38
2022-11-27T19:02:54.777Z,93964.69
2022-11-27T19:05:23.382Z,93942.88
2022-11-27T19:07:49.902Z,93905.19
2022-11-27T19:10:21.436Z,93996.00
2022-11-27T19:12:48.866Z,93999.41
2022-11-27T19:15:16.340Z,94009.84
2022-11-27T19:17:42.883Z,94002.28
2022-11-27T19:20:15.588Z,93996.84
2022-11-27T19:22:44.034Z,93993.66
2022-11-27T19:25:11.477Z,93977.38
2022-11-27T19:27:37.924Z,93969.94
2022-11-27T19:30:05.644Z,93969.88
2022-11-27T19:32:39.434Z,94002.28
2022-11-27T19:35:31.463Z,94005.25
2022-11-27T19:38:03.509Z,94008.19
2022-11-27T19:40:33.214Z,93975.16
2022-11-27T19:43:01.356Z,93965.63
2022-11-27T19:45:35.130Z,93970.75
2022-11-27T19:48:02.794Z,93980.69
2022-11-27T19:50:36.167Z,93956.28
2022-11-27T19:53:05.076Z,93970.09
2022-11-27T19:55:31.922Z,93974.06
2022-11-27T19:57:59.498Z,93946.63
2022-11-27T20:00:34.042Z,93942.81
2022-11-27T20:03:00.497Z,93943.53
2022-11-27T20:05:29.123Z,93928.97
2022-11-27T20:07:55.638Z,93934.69
2022-11-27T20:10:48.700Z,93944.31
2022-11-27T20:13:16.161Z,93914.44
2022-11-27T20:15:48.522Z,93929.69
2022-11-27T20:18:16.995Z,93922.47
2022-11-27T20:20:46.899Z,93913.03
2022-11-27T20:23:14.597Z,93905.97
2022-11-27T20:25:47.065Z,93909.94
2022-11-27T20:28:23.667Z,93892.03
2022-11-27T20:31:00.870Z,93907.00
2022-11-27T20:33:36.677Z,93909.13
2022-11-27T20:36:03.489Z,93884.13
2022-11-27T20:38:34.990Z,93842.94
2022-11-27T20:41:09.311Z,93880.03
2022-11-27T20:43:37.033Z,93890.63
2022-11-27T20:46:04.272Z,93892.81
2022-11-27T20:48:35.083Z,93895.03
2022-11-27T20:51:11.082Z,93885.41
2022-11-27T20:53:49.972Z,93862.28
2022-11-27T20:56:25.986Z,93871.41
2022-11-27T20:59:01.696Z,93837.59
2022-11-27T21:01:32.247Z,93859.16
2022-11-27T21:04:10.743Z,93852.34
2022-11-27T21:06:43.745Z,93854.50
2022-11-27T21:09:12.248Z,93840.69
2022-11-27T21:11:41.311Z,93850.88
2022-11-27T21:14:17.338Z,93842.63
2022-11-27T21:16:54.401Z,93852.63
2022-11-27T21:19:25.350Z,93839.69
2022-11-27T21:21:55.002Z,93854.84
2022-11-27T21:24:26.348Z,93846.53
2022-11-27T21:27:01.043Z,93820.22
2022-11-27T21:29:27.744Z,93813.19
2022-11-27T21:31:55.240Z,93842.34
2022-11-27T21:34:24.027Z,93834.53
2022-11-27T21:37:05.795Z,93816.13
2022-11-27T21:39:33.258Z,93812.94
2022-11-27T21:42:10.475Z,93829.94
2022-11-27T21:44:41.327Z,93826.72
2022-11-27T21:47:12.143Z,93835.69
2022-11-27T21:49:39.752Z,93803.66
2022-11-27T21:52:23.621Z,93803.28
2022-11-27T21:54:50.850Z,93825.94
2022-11-27T21:57:17.392Z,93820.72
2022-11-27T21:59:43.869Z,93820.84
2022-11-27T22:02:11.993Z,93818.63
2022-11-27T22:04:39.676Z,93796.66
2022-11-27T22:07:08.336Z,93798.38
2022-11-27T22:09:34.819Z,93788.88
2022-11-27T22:12:01.355Z,93774.00
2022-11-27T22:14:31.039Z,93774.56
2022-11-27T22:17:02.636Z,93772.97
2022-11-27T22:19:42.202Z,93774.88
2022-11-27T22:22:17.990Z,93764.78
2022-11-27T22:24:44.610Z,93770.88
2022-11-27T22:27:11.174Z,93785.31
2022-11-27T22:29:46.954Z,93762.28
2022-11-27T22:32:14.518Z,93778.38
2022-11-27T22:34:45.153Z,93773.13
2022-11-27T22:37:21.947Z,93760.69
2022-11-27T22:39:48.353Z,93757.19
2022-11-27T22:42:14.784Z,93769.06
2022-11-27T22:44:41.318Z,93770.44
2022-11-27T22:47:07.947Z,93771.97
2022-11-27T22:49:37.424Z,93774.97
2022-11-27T22:52:04.001Z,93782.50
2022-11-27T22:54:33.583Z,93778.69
2022-11-27T22:57:00.046Z,93747.75
2022-11-27T22:59:34.723Z,93750.69
2022-11-27T23:02:02.425Z,93778.16
2022-11-27T23:04:28.913Z,93760.97
2022-11-27T23:06:57.370Z,93760.03
2022-11-27T23:09:23.918Z,93758.25
2022-11-27T23:11:50.496Z,93754.22
2022-11-27T23:14:22.602Z,93745.53
2022-11-27T23:16:57.330Z,93744.88
2022-11-27T23:19:23.876Z,93759.00
2022-11-27T23:21:57.282Z,93748.19
2022-11-27T23:24:23.708Z,93745.81
2022-11-27T23:26:50.219Z,93772.19
2022-11-27T23:29:16.701Z,93751.16
2022-11-27T23:31:43.487Z,93741.13
2022-11-27T23:34:13.917Z,93738.13
2022-11-27T23:36:40.475Z,93755.16
2022-11-27T23:39:11.588Z,93739.19
2022-11-27T23:41:39.728Z,93750.00
2022-11-27T23:44:06.377Z,93745.88
2022-11-27T23:46:32.835Z,93733.97
2022-11-27T23:49:00.207Z,93722.63
2022-11-27T23:51:28.972Z,93727.19
2022-11-27T23:53:55.723Z,93727.63
2022-11-27T23:56:27.908Z,93754.00
2022-11-27T23:58:55.604Z,93736.47
